sensor_id;sensor_type;location;lat;lon;timestamp;pressure;altitude;pressure_sealevel;temperature;humidity
31483;BME280;18103;52.246;8.052;2023-02-02T00:01:50;100625.00;;;4.40;85.95
31483;BME280;18103;52.246;8.052;2023-02-02T00:04:21;100620.53;;;4.42;86.12
31483;BME280;18103;52.246;8.052;2023-02-02T00:06:48;100618.84;;;4.41;85.98
31483;BME280;18103;52.246;8.052;2023-02-02T00:09:16;100622.16;;;4.44;85.62
31483;BME280;18103;52.246;8.052;2023-02-02T00:11:43;100612.75;;;4.40;85.75
31483;BME280;18103;52.246;8.052;2023-02-02T00:14:09;100620.53;;;4.42;85.52
31483;BME280;18103;52.246;8.052;2023-02-02T00:16:40;100611.84;;;4.41;85.61
31483;BME280;18103;52.246;8.052;2023-02-02T00:19:15;100616.16;;;4.42;85.61
31483;BME280;18103;52.246;8.052;2023-02-02T00:21:41;100621.47;;;4.41;85.72
31483;BME280;18103;52.246;8.052;2023-02-02T00:24:09;100610.00;;;4.43;85.79
31483;BME280;18103;52.246;8.052;2023-02-02T00:26:36;100619.69;;;4.41;85.52
31483;BME280;18103;52.246;8.052;2023-02-02T00:29:03;100616.25;;;4.41;85.75
31483;BME280;18103;52.246;8.052;2023-02-02T00:31:29;100608.31;;;4.42;85.53
31483;BME280;18103;52.246;8.052;2023-02-02T00:33:54;100616.09;;;4.44;85.43
31483;BME280;18103;52.246;8.052;2023-02-02T00:36:20;100611.09;;;4.39;85.82
31483;BME280;18103;52.246;8.052;2023-02-02T00:38:47;100625.69;;;4.43;85.63
31483;BME280;18103;52.246;8.052;2023-02-02T00:41:12;100623.13;;;4.42;85.76
31483;BME280;18103;52.246;8.052;2023-02-02T00:43:38;100607.69;;;4.37;86.25
31483;BME280;18103;52.246;8.052;2023-02-02T00:46:03;100621.31;;;4.44;86.10
31483;BME280;18103;52.246;8.052;2023-02-02T00:48:29;100617.91;;;4.42;86.26
31483;BME280;18103;52.246;8.052;2023-02-02T00:50:55;100616.09;;;4.44;86.22
31483;BME280;18103;52.246;8.052;2023-02-02T00:53:20;100612.56;;;4.45;86.49
31483;BME280;18103;52.246;8.052;2023-02-02T00:55:45;100630.78;;;4.47;86.51
31483;BME280;18103;52.246;8.052;2023-02-02T00:58:11;100625.69;;;4.43;86.78
31483;BME280;18103;52.246;8.052;2023-02-02T01:00:36;100635.22;;;4.44;86.81
31483;BME280;18103;52.246;8.052;2023-02-02T01:03:02;100638.22;;;4.54;86.36
31483;BME280;18103;52.246;8.052;2023-02-02T01:05:30;100632.44;;;4.48;86.75
31483;BME280;18103;52.246;8.052;2023-02-02T01:07:55;100644.44;;;4.52;86.40
31483;BME280;18103;52.246;8.052;2023-02-02T01:10:21;100646.47;;;4.47;86.72
31483;BME280;18103;52.246;8.052;2023-02-02T01:12:46;100648.09;;;4.49;86.69
31483;BME280;18103;52.246;8.052;2023-02-02T01:15:12;100642.22;;;4.44;87.12
31483;BME280;18103;52.246;8.052;2023-02-02T01:17:38;100648.00;;;4.51;86.41
31483;BME280;18103;52.246;8.052;2023-02-02T01:20:04;100642.22;;;4.44;86.55
31483;BME280;18103;52.246;8.052;2023-02-02T01:22:30;100643.06;;;4.44;86.91
31483;BME280;18103;52.246;8.052;2023-02-02T01:24:58;100644.75;;;4.45;86.65
31483;BME280;18103;52.246;8.052;2023-02-02T01:27:24;100651.06;;;4.41;86.72
31483;BME280;18103;52.246;8.052;2023-02-02T01:29:49;100656.13;;;4.44;86.46
31483;BME280;18103;52.246;8.052;2023-02-02T01:32:15;100648.38;;;4.43;86.52
31483;BME280;18103;52.246;8.052;2023-02-02T01:34:40;100650.91;;;4.44;86.33
31483;BME280;18103;52.246;8.052;2023-02-02T01:37:08;100647.69;;;4.39;86.62
31483;BME280;18103;52.246;8.052;2023-02-02T01:39:33;100649.50;;;4.37;86.21
31483;BME280;18103;52.246;8.052;2023-02-02T01:41:59;100649.50;;;4.37;86.52
31483;BME280;18103;52.246;8.052;2023-02-02T01:47:15;100658.81;;;4.43;86.45
31483;BME280;18103;52.246;8.052;2023-02-02T01:49:41;100658.06;;;4.41;86.54
31483;BME280;18103;52.246;8.052;2023-02-02T01:52:08;100664.13;;;4.41;86.78
31483;BME280;18103;52.246;8.052;2023-02-02T01:54:44;100661.50;;;4.41;86.82
31483;BME280;18103;52.246;8.052;2023-02-02T01:57:25;100657.84;;;4.45;86.93
31483;BME280;18103;52.246;8.052;2023-02-02T01:59:53;100665.59;;;4.47;86.86
31483;BME280;18103;52.246;8.052;2023-02-02T02:02:19;100670.91;;;4.45;87.04
31483;BME280;18103;52.246;8.052;2023-02-02T02:04:46;100671.72;;;4.46;86.95
31483;BME280;18103;52.246;8.052;2023-02-02T02:07:12;100674.16;;;4.51;87.50
31483;BME280;18103;52.246;8.052;2023-02-02T02:09:38;100674.06;;;4.52;87.28
31483;BME280;18103;52.246;8.052;2023-02-02T02:12:10;100673.09;;;4.55;87.39
31483;BME280;18103;52.246;8.052;2023-02-02T02:14:37;100676.53;;;4.55;87.78
31483;BME280;18103;52.246;8.052;2023-02-02T02:35:11;100688.94;;;4.69;87.72
31483;BME280;18103;52.246;8.052;2023-02-02T02:42:50;100688.94;;;4.69;87.10
31483;BME280;18103;52.246;8.052;2023-02-02T02:45:18;100694.09;;;4.71;87.14
31483;BME280;18103;52.246;8.052;2023-02-02T02:47:44;100691.47;;;4.71;87.46
31483;BME280;18103;52.246;8.052;2023-02-02T02:50:10;100692.13;;;4.76;86.83
31483;BME280;18103;52.246;8.052;2023-02-02T02:52:36;100689.63;;;4.73;86.80
31483;BME280;18103;52.246;8.052;2023-02-02T02:55:04;100693.94;;;4.74;87.00
31483;BME280;18103;52.246;8.052;2023-02-02T03:02:47;100682.78;;;4.70;86.71
31483;BME280;18103;52.246;8.052;2023-02-02T03:07:49;100686.56;;;4.65;87.21
31483;BME280;18103;52.246;8.052;2023-02-02T03:10:18;100682.88;;;4.69;87.32
31483;BME280;18103;52.246;8.052;2023-02-02T03:12:49;100689.84;;;4.68;87.36
31483;BME280;18103;52.246;8.052;2023-02-02T03:15:16;100687.41;;;4.65;87.15
31483;BME280;18103;52.246;8.052;2023-02-02T03:17:42;100689.16;;;4.65;87.37
31483;BME280;18103;52.246;8.052;2023-02-02T03:20:09;100688.16;;;4.67;87.46
31483;BME280;18103;52.246;8.052;2023-02-02T03:22:35;100697.94;;;4.63;87.44
31483;BME280;18103;52.246;8.052;2023-02-02T03:25:00;100694.44;;;4.63;87.62
31483;BME280;18103;52.246;8.052;2023-02-02T03:27:26;100686.69;;;4.61;87.89
31483;BME280;18103;52.246;8.052;2023-02-02T03:29:52;100689.78;;;4.70;88.18
31483;BME280;18103;52.246;8.052;2023-02-02T03:32:18;100694.84;;;4.73;87.98
31483;BME280;18103;52.246;8.052;2023-02-02T03:34:43;100695.88;;;4.70;88.23
31483;BME280;18103;52.246;8.052;2023-02-02T03:37:09;100705.09;;;4.77;87.83
31483;BME280;18103;52.246;8.052;2023-02-02T03:39:34;100705.88;;;4.79;88.11
31483;BME280;18103;52.246;8.052;2023-02-02T03:41:59;100706.81;;;4.78;88.46
31483;BME280;18103;52.246;8.052;2023-02-02T03:44:25;100704.78;;;4.84;88.29
31483;BME280;18103;52.246;8.052;2023-02-02T03:46:53;100706.66;;;4.82;88.38
31483;BME280;18103;52.246;8.052;2023-02-02T03:49:19;100707.22;;;4.88;88.22
31483;BME280;18103;52.246;8.052;2023-02-02T03:51:44;100707.22;;;4.88;88.41
31483;BME280;18103;52.246;8.052;2023-02-02T03:54:10;100715.50;;;4.96;88.09
31483;BME280;18103;52.246;8.052;2023-02-02T03:56:36;100714.50;;;4.99;87.85
31483;BME280;18103;52.246;8.052;2023-02-02T03:59:01;100712.97;;;4.95;88.54
31483;BME280;18103;52.246;8.052;2023-02-02T04:01:27;100717.13;;;4.99;88.48
31483;BME280;18103;52.246;8.052;2023-02-02T04:03:54;100714.44;;;5.01;88.37
31483;BME280;18103;52.246;8.052;2023-02-02T04:06:20;100712.84;;;4.98;88.77
31483;BME280;18103;52.246;8.052;2023-02-02T04:08:45;100713.97;;;5.10;88.29
31483;BME280;18103;52.246;8.052;2023-02-02T04:11:11;100705.06;;;5.14;88.12
31483;BME280;18103;52.246;8.052;2023-02-02T04:13:36;100707.06;;;5.09;88.20
31483;BME280;18103;52.246;8.052;2023-02-02T04:16:02;100714.13;;;5.24;87.94
31483;BME280;18103;52.246;8.052;2023-02-02T04:18:27;100715.44;;;5.16;87.84
31483;BME280;18103;52.246;8.052;2023-02-02T04:20:57;100717.81;;;5.20;87.82
31483;BME280;18103;52.246;8.052;2023-02-02T04:23:23;100722.84;;;5.25;87.56
31483;BME280;18103;52.246;8.052;2023-02-02T04:25:50;100723.06;;;5.20;88.01
31483;BME280;18103;52.246;8.052;2023-02-02T04:28:15;100721.31;;;5.21;88.05
31483;BME280;18103;52.246;8.052;2023-02-02T04:30:41;100726.53;;;5.21;88.56
31483;BME280;18103;52.246;8.052;2023-02-02T04:33:06;100732.38;;;5.26;88.15
31483;BME280;18103;52.246;8.052;2023-02-02T04:35:31;100735.31;;;5.20;87.70
31483;BME280;18103;52.246;8.052;2023-02-02T04:37:57;100747.31;;;5.24;87.60
31483;BME280;18103;52.246;8.052;2023-02-02T04:40:22;100731.94;;;5.18;87.89
31483;BME280;18103;52.246;8.052;2023-02-02T04:42:48;100736.31;;;5.17;87.19
31483;BME280;18103;52.246;8.052;2023-02-02T04:45:13;100729.31;;;5.18;87.41
31483;BME280;18103;52.246;8.052;2023-02-02T04:47:38;100730.41;;;5.13;87.34
31483;BME280;18103;52.246;8.052;2023-02-02T04:50:04;100738.16;;;5.15;87.17
31483;BME280;18103;52.246;8.052;2023-02-02T04:52:30;100734.47;;;5.19;87.22
31483;BME280;18103;52.246;8.052;2023-02-02T04:54:55;100743.31;;;5.17;87.41
31483;BME280;18103;52.246;8.052;2023-02-02T04:57:20;100738.38;;;5.10;87.29
31483;BME280;18103;52.246;8.052;2023-02-02T04:59:46;100746.47;;;5.06;87.15
31483;BME280;18103;52.246;8.052;2023-02-02T05:02:11;100741.06;;;5.09;87.34
31483;BME280;18103;52.246;8.052;2023-02-02T05:04:37;100744.53;;;5.09;86.99
31483;BME280;18103;52.246;8.052;2023-02-02T05:07:02;100740.38;;;5.05;87.12
31483;BME280;18103;52.246;8.052;2023-02-02T05:09:27;100749.91;;;5.06;87.22
31483;BME280;18103;52.246;8.052;2023-02-02T05:11:53;100754.47;;;5.03;87.15
31483;BME280;18103;52.246;8.052;2023-02-02T05:14:18;100744.16;;;5.00;87.04
31483;BME280;18103;52.246;8.052;2023-02-02T05:16:44;100748.03;;;4.91;86.67
31483;BME280;18103;52.246;8.052;2023-02-02T05:19:12;100740.91;;;4.94;86.48
31483;BME280;18103;52.246;8.052;2023-02-02T05:21:41;100751.69;;;4.88;86.29
31483;BME280;18103;52.246;8.052;2023-02-02T05:24:08;100754.06;;;4.93;86.61
31483;BME280;18103;52.246;8.052;2023-02-02T05:26:34;100752.59;;;4.87;86.10
31483;BME280;18103;52.246;8.052;2023-02-02T05:28:59;100750.03;;;4.86;85.82
31483;BME280;18103;52.246;8.052;2023-02-02T05:31:25;100751.31;;;4.77;85.53
31483;BME280;18103;52.246;8.052;2023-02-02T05:33:50;100754.16;;;4.72;85.04
31483;BME280;18103;52.246;8.052;2023-02-02T05:36:15;100763.13;;;4.67;85.47
31483;BME280;18103;52.246;8.052;2023-02-02T05:38:41;100770.69;;;4.73;85.56
31483;BME280;18103;52.246;8.052;2023-02-02T05:41:06;100763.38;;;4.62;85.42
31483;BME280;18103;52.246;8.052;2023-02-02T05:43:32;100780.03;;;4.59;85.96
31483;BME280;18103;52.246;8.052;2023-02-02T05:45:58;100785.13;;;4.62;85.79
31483;BME280;18103;52.246;8.052;2023-02-02T05:48:24;100777.69;;;4.53;86.32
31483;BME280;18103;52.246;8.052;2023-02-02T05:51:05;100780.13;;;4.58;86.32
31483;BME280;18103;52.246;8.052;2023-02-02T05:53:34;100785.53;;;4.53;86.44
31483;BME280;18103;52.246;8.052;2023-02-02T05:56:00;100784.84;;;4.50;86.42
31483;BME280;18103;52.246;8.052;2023-02-02T05:58:26;100783.22;;;4.47;86.75
31483;BME280;18103;52.246;8.052;2023-02-02T06:00:52;100782.31;;;4.48;86.81
31483;BME280;18103;52.246;8.052;2023-02-02T06:03:17;100783.56;;;4.58;86.48
31483;BME280;18103;52.246;8.052;2023-02-02T06:05:43;100785.34;;;4.58;86.89
31483;BME280;18103;52.246;8.052;2023-02-02T06:08:08;100783.63;;;4.57;87.19
31483;BME280;18103;52.246;8.052;2023-02-02T06:10:34;100786.97;;;4.60;87.06
31483;BME280;18103;52.246;8.052;2023-02-02T06:12:59;100790.72;;;4.55;87.36
31483;BME280;18103;52.246;8.052;2023-02-02T06:15:24;100788.88;;;4.57;87.26
31483;BME280;18103;52.246;8.052;2023-02-02T06:17:51;100786.25;;;4.57;87.28
31483;BME280;18103;52.246;8.052;2023-02-02T06:20:17;100792.63;;;4.51;87.95
31483;BME280;18103;52.246;8.052;2023-02-02T06:22:42;100795.66;;;4.61;87.49
31483;BME280;18103;52.246;8.052;2023-02-02T06:25:08;100796.28;;;4.66;87.85
31483;BME280;18103;52.246;8.052;2023-02-02T06:27:34;100796.38;;;4.65;88.36
31483;BME280;18103;52.246;8.052;2023-02-02T06:29:59;100795.50;;;4.64;88.20
31483;BME280;18103;52.246;8.052;2023-02-02T06:32:27;100809.44;;;4.65;88.22
31483;BME280;18103;52.246;8.052;2023-02-02T06:34:53;100811.84;;;4.69;88.57
31483;BME280;18103;52.246;8.052;2023-02-02T06:37:18;100809.63;;;4.60;88.38
31483;BME280;18103;52.246;8.052;2023-02-02T06:39:44;100805.28;;;4.60;88.74
31483;BME280;18103;52.246;8.052;2023-02-02T06:42:09;100814.25;;;4.55;88.96
31483;BME280;18103;52.246;8.052;2023-02-02T06:44:34;100815.16;;;4.54;88.85
31483;BME280;18103;52.246;8.052;2023-02-02T06:47:00;100819.47;;;4.55;89.20
31483;BME280;18103;52.246;8.052;2023-02-02T06:49:25;100826.44;;;4.54;89.07
31483;BME280;18103;52.246;8.052;2023-02-02T06:51:50;100823.41;;;4.44;89.10
31483;BME280;18103;52.246;8.052;2023-02-02T06:54:16;100823.22;;;4.49;88.90
31483;BME280;18103;52.246;8.052;2023-02-02T06:56:41;100825.50;;;4.36;88.94
31483;BME280;18103;52.246;8.052;2023-02-02T06:59:06;100828.69;;;4.43;88.84
31483;BME280;18103;52.246;8.052;2023-02-02T07:01:32;100823.41;;;4.44;88.85
31483;BME280;18103;52.246;8.052;2023-02-02T07:03:57;100834.50;;;4.50;89.12
31483;BME280;18103;52.246;8.052;2023-02-02T07:06:26;100830.56;;;4.41;88.95
31483;BME280;18103;52.246;8.052;2023-02-02T07:08:52;100833.72;;;4.48;88.77
31483;BME280;18103;52.246;8.052;2023-02-02T07:11:18;100833.84;;;4.44;89.15
31483;BME280;18103;52.246;8.052;2023-02-02T07:13:44;100836.53;;;4.43;88.96
31483;BME280;18103;52.246;8.052;2023-02-02T07:16:10;100834.72;;;4.45;88.86
31483;BME280;18103;52.246;8.052;2023-02-02T07:18:37;100835.50;;;4.47;89.10
31483;BME280;18103;52.246;8.052;2023-02-02T07:21:04;100834.22;;;4.37;89.33
31483;BME280;18103;52.246;8.052;2023-02-02T07:23:30;100836.41;;;4.46;89.44
31483;BME280;18103;52.246;8.052;2023-02-02T07:28:26;100847.38;;;4.54;89.07
31483;BME280;18103;52.246;8.052;2023-02-02T07:30:51;100845.66;;;4.53;88.98
31483;BME280;18103;52.246;8.052;2023-02-02T07:33:17;100853.94;;;4.44;89.21
31483;BME280;18103;52.246;8.052;2023-02-02T07:35:42;100850.44;;;4.43;89.31
31483;BME280;18103;52.246;8.052;2023-02-02T07:38:07;100852.22;;;4.43;89.40
31483;BME280;18103;52.246;8.052;2023-02-02T07:40:33;100850.81;;;4.36;89.17
31483;BME280;18103;52.246;8.052;2023-02-02T07:42:58;100858.78;;;4.33;89.52
31483;BME280;18103;52.246;8.052;2023-02-02T07:45:25;100857.75;;;4.37;89.56
31483;BME280;18103;52.246;8.052;2023-02-02T07:47:55;100862.75;;;4.41;89.37
31483;BME280;18103;52.246;8.052;2023-02-02T07:50:20;100856.53;;;4.44;89.39
31483;BME280;18103;52.246;8.052;2023-02-02T07:52:46;100861.19;;;4.37;89.59
31483;BME280;18103;52.246;8.052;2023-02-02T07:55:11;100859.41;;;4.38;89.78
31483;BME280;18103;52.246;8.052;2023-02-02T07:57:36;100857.75;;;4.37;89.54
31483;BME280;18103;52.246;8.052;2023-02-02T08:00:02;100868.13;;;4.38;89.82
31483;BME280;18103;52.246;8.052;2023-02-02T08:02:28;100862.00;;;4.39;89.71
31483;BME280;18103;52.246;8.052;2023-02-02T08:04:53;100862.81;;;4.40;89.98
31483;BME280;18103;52.246;8.052;2023-02-02T08:07:18;100871.50;;;4.40;89.78
31483;BME280;18103;52.246;8.052;2023-02-02T08:09:45;100863.81;;;4.37;89.82
31483;BME280;18103;52.246;8.052;2023-02-02T08:12:12;100866.84;;;4.47;89.98
31483;BME280;18103;52.246;8.052;2023-02-02T08:14:37;100868.75;;;4.43;89.97
31483;BME280;18103;52.246;8.052;2023-02-02T08:17:03;100875.81;;;4.41;89.98
31483;BME280;18103;52.246;8.052;2023-02-02T08:19:28;100871.34;;;4.43;89.62
31483;BME280;18103;52.246;8.052;2023-02-02T08:21:53;100874.78;;;4.45;89.95
31483;BME280;18103;52.246;8.052;2023-02-02T08:24:19;100886.41;;;4.38;90.11
31483;BME280;18103;52.246;8.052;2023-02-02T08:26:44;100872.38;;;4.41;90.29
31483;BME280;18103;52.246;8.052;2023-02-02T08:29:11;100888.97;;;4.40;90.22
31483;BME280;18103;52.246;8.052;2023-02-02T08:31:42;100879.28;;;4.42;90.24
31483;BME280;18103;52.246;8.052;2023-02-02T08:34:08;100884.19;;;4.50;90.30
31483;BME280;18103;52.246;8.052;2023-02-02T08:36:33;100893.91;;;4.46;90.08
31483;BME280;18103;52.246;8.052;2023-02-02T08:39:04;100892.84;;;4.50;89.89
31483;BME280;18103;52.246;8.052;2023-02-02T08:41:30;100899.66;;;4.54;89.97
31483;BME280;18103;52.246;8.052;2023-02-02T08:43:57;100898.59;;;4.58;89.72
31483;BME280;18103;52.246;8.052;2023-02-02T08:46:23;100912.56;;;4.57;90.06
31483;BME280;18103;52.246;8.052;2023-02-02T08:48:48;100907.03;;;4.44;90.05
31483;BME280;18103;52.246;8.052;2023-02-02T08:51:16;100916.19;;;4.55;90.13
31483;BME280;18103;52.246;8.052;2023-02-02T08:53:43;100922.53;;;4.49;90.65
31483;BME280;18103;52.246;8.052;2023-02-02T08:56:16;100919.66;;;4.55;90.18
31483;BME280;18103;52.246;8.052;2023-02-02T08:58:47;100922.78;;;4.63;90.65
31483;BME280;18103;52.246;8.052;2023-02-02T09:01:14;100929.13;;;4.77;89.78
31483;BME280;18103;52.246;8.052;2023-02-02T09:03:40;100941.25;;;4.79;89.91
31483;BME280;18103;52.246;8.052;2023-02-02T09:06:08;100944.28;;;4.70;89.86
31483;BME280;18103;52.246;8.052;2023-02-02T09:08:34;100944.00;;;4.76;89.96
31483;BME280;18103;52.246;8.052;2023-02-02T09:11:06;100938.75;;;4.76;89.82
31483;BME280;18103;52.246;8.052;2023-02-02T09:13:32;100937.00;;;4.77;90.01
31483;BME280;18103;52.246;8.052;2023-02-02T09:15:59;100944.06;;;4.75;90.06
31483;BME280;18103;52.246;8.052;2023-02-02T09:18:25;100953.41;;;4.80;90.28
31483;BME280;18103;52.246;8.052;2023-02-02T09:20:50;100956.94;;;4.79;89.77
31483;BME280;18103;52.246;8.052;2023-02-02T09:23:15;100962.75;;;4.86;89.99
31483;BME280;18103;52.246;8.052;2023-02-02T09:25:41;100962.09;;;4.81;90.00
31483;BME280;18103;52.246;8.052;2023-02-02T09:28:06;100973.78;;;4.93;89.65
31483;BME280;18103;52.246;8.052;2023-02-02T09:30:31;100968.25;;;4.99;89.56
31483;BME280;18103;52.246;8.052;2023-02-02T09:32:57;100973.19;;;4.86;89.45
31483;BME280;18103;52.246;8.052;2023-02-02T09:35:22;100976.66;;;4.87;89.72
31483;BME280;18103;52.246;8.052;2023-02-02T09:37:47;100983.13;;;4.99;89.56
31483;BME280;18103;52.246;8.052;2023-02-02T09:40:16;100986.72;;;4.96;89.88
31483;BME280;18103;52.246;8.052;2023-02-02T09:45:17;101002.13;;;5.02;89.92
31483;BME280;18103;52.246;8.052;2023-02-02T09:47:55;100988.94;;;5.05;89.71
31483;BME280;18103;52.246;8.052;2023-02-02T09:55:39;101007.38;;;5.02;89.51
31483;BME280;18103;52.246;8.052;2023-02-02T09:58:12;101008.22;;;5.03;89.67
31483;BME280;18103;52.246;8.052;2023-02-02T10:03:36;101011.50;;;5.08;89.77
31483;BME280;18103;52.246;8.052;2023-02-02T10:06:25;101018.91;;;5.17;89.38
31483;BME280;18103;52.246;8.052;2023-02-02T10:11:55;101025.25;;;5.32;89.30
31483;BME280;18103;52.246;8.052;2023-02-02T10:14:30;101024.03;;;5.39;88.78
31483;BME280;18103;52.246;8.052;2023-02-02T10:16:59;101024.81;;;5.41;88.51
31483;BME280;18103;52.246;8.052;2023-02-02T10:19:28;101023.81;;;5.44;89.13
31483;BME280;18103;52.246;8.052;2023-02-02T10:22:18;101030.97;;;5.40;89.04
31483;BME280;18103;52.246;8.052;2023-02-02T10:24:44;101025.84;;;5.37;88.93
31483;BME280;18103;52.246;8.052;2023-02-02T10:27:15;101041.63;;;5.36;89.35
31483;BME280;18103;52.246;8.052;2023-02-02T10:29:55;101040.31;;;5.46;88.56
31483;BME280;18103;52.246;8.052;2023-02-02T10:32:41;101043.56;;;5.51;88.73
31483;BME280;18103;52.246;8.052;2023-02-02T10:35:26;101052.00;;;5.39;89.20
31483;BME280;18103;52.246;8.052;2023-02-02T10:38:02;101051.13;;;5.38;89.14
31483;BME280;18103;52.246;8.052;2023-02-02T10:46:23;101046.81;;;5.56;88.85
31483;BME280;18103;52.246;8.052;2023-02-02T10:48:50;101046.53;;;5.43;89.01
31483;BME280;18103;52.246;8.052;2023-02-02T10:51:28;101046.47;;;5.45;89.30
31483;BME280;18103;52.246;8.052;2023-02-02T10:53:56;101056.78;;;5.48;88.95
31483;BME280;18103;52.246;8.052;2023-02-02T10:56:34;101054.47;;;5.42;89.10
31483;BME280;18103;52.246;8.052;2023-02-02T10:59:16;101052.44;;;5.48;89.33
31483;BME280;18103;52.246;8.052;2023-02-02T11:01:45;101043.19;;;5.40;89.28
31483;BME280;18103;52.246;8.052;2023-02-02T11:04:12;101051.78;;;5.43;89.37
31483;BME280;18103;52.246;8.052;2023-02-02T11:06:56;101053.97;;;5.34;89.06
31483;BME280;18103;52.246;8.052;2023-02-02T11:09:24;101050.78;;;5.46;89.39
31483;BME280;18103;52.246;8.052;2023-02-02T11:11:56;101055.38;;;5.41;89.91
31483;BME280;18103;52.246;8.052;2023-02-02T11:14:33;101057.22;;;5.39;89.48
31483;BME280;18103;52.246;8.052;2023-02-02T11:17:03;101058.13;;;5.38;89.64
31483;BME280;18103;52.246;8.052;2023-02-02T11:19:31;101069.97;;;5.46;89.53
31483;BME280;18103;52.246;8.052;2023-02-02T11:22:00;101067.50;;;5.62;89.43
31483;BME280;18103;52.246;8.052;2023-02-02T11:24:29;101054.44;;;5.61;89.32
31483;BME280;18103;52.246;8.052;2023-02-02T11:26:56;101055.97;;;5.47;89.51
31483;BME280;18103;52.246;8.052;2023-02-02T11:37:37;101065.88;;;5.60;89.60
31483;BME280;18103;52.246;8.052;2023-02-02T11:42:49;101065.94;;;5.58;89.81
31483;BME280;18103;52.246;8.052;2023-02-02T11:48:01;101070.25;;;5.59;89.79
31483;BME280;18103;52.246;8.052;2023-02-02T11:50:28;101071.53;;;5.70;89.93
31483;BME280;18103;52.246;8.052;2023-02-02T11:52:54;101072.28;;;5.72;89.98
31483;BME280;18103;52.246;8.052;2023-02-02T11:55:24;101076.97;;;5.65;90.10
31483;BME280;18103;52.246;8.052;2023-02-02T12:00:48;101066.78;;;5.59;90.21
31483;BME280;18103;52.246;8.052;2023-02-02T12:05:50;101078.94;;;5.79;90.29
31483;BME280;18103;52.246;8.052;2023-02-02T12:08:16;101069.25;;;5.81;90.09
31483;BME280;18103;52.246;8.052;2023-02-02T12:10:48;101078.59;;;5.87;90.01
31483;BME280;18103;52.246;8.052;2023-02-02T12:16:01;101078.09;;;5.78;90.37
31483;BME280;18103;52.246;8.052;2023-02-02T12:18:40;101075.00;;;5.70;90.48
31483;BME280;18103;52.246;8.052;2023-02-02T12:24:09;101076.41;;;5.77;90.16
31483;BME280;18103;52.246;8.052;2023-02-02T12:26:39;101080.56;;;5.81;90.20
31483;BME280;18103;52.246;8.052;2023-02-02T12:42:47;101073.00;;;5.75;89.81
31483;BME280;18103;52.246;8.052;2023-02-02T12:56:53;101068.59;;;6.14;88.91
31483;BME280;18103;52.246;8.052;2023-02-02T13:02:27;101072.91;;;5.96;89.46
31483;BME280;18103;52.246;8.052;2023-02-02T13:05:11;101072.34;;;6.08;88.81
31483;BME280;18103;52.246;8.052;2023-02-02T13:07:51;101080.00;;;5.94;89.40
31483;BME280;18103;52.246;8.052;2023-02-02T13:10:31;101082.31;;;6.02;88.98
31483;BME280;18103;52.246;8.052;2023-02-02T13:13:03;101076.03;;;6.04;88.98
31483;BME280;18103;52.246;8.052;2023-02-02T13:15:37;101078.81;;;6.01;88.98
31483;BME280;18103;52.246;8.052;2023-02-02T13:18:18;101082.75;;;6.10;88.65
31483;BME280;18103;52.246;8.052;2023-02-02T13:20:54;101080.88;;;6.13;87.98
31483;BME280;18103;52.246;8.052;2023-02-02T13:23:31;101087.88;;;6.13;88.00
31483;BME280;18103;52.246;8.052;2023-02-02T13:26:19;101086.94;;;6.14;87.53
31483;BME280;18103;52.246;8.052;2023-02-02T13:28:56;101075.84;;;6.09;87.75
31483;BME280;18103;52.246;8.052;2023-02-02T13:34:56;101078.31;;;6.12;87.50
31483;BME280;18103;52.246;8.052;2023-02-02T13:40:26;101079.00;;;6.15;87.04
31483;BME280;18103;52.246;8.052;2023-02-02T14:01:58;101088.72;;;5.75;88.61
31483;BME280;18103;52.246;8.052;2023-02-02T14:04:26;101085.75;;;5.83;87.98
31483;BME280;18103;52.246;8.052;2023-02-02T14:07:02;101092.72;;;6.03;87.93
31483;BME280;18103;52.246;8.052;2023-02-02T14:09:32;101095.25;;;6.05;88.05
31483;BME280;18103;52.246;8.052;2023-02-02T14:12:00;101096.28;;;6.20;87.30
31483;BME280;18103;52.246;8.052;2023-02-02T14:14:28;101092.13;;;5.96;88.08
31483;BME280;18103;52.246;8.052;2023-02-02T14:17:03;101093.56;;;6.04;88.15
31483;BME280;18103;52.246;8.052;2023-02-02T14:22:03;101099.19;;;5.94;88.22
31483;BME280;18103;52.246;8.052;2023-02-02T14:26:59;101095.41;;;6.02;87.91
31483;BME280;18103;52.246;8.052;2023-02-02T14:31:58;101095.53;;;5.98;88.13
31483;BME280;18103;52.246;8.052;2023-02-02T14:45:35;101111.13;;;6.02;88.06
31483;BME280;18103;52.246;8.052;2023-02-02T14:50:40;101109.28;;;6.04;87.34
31483;BME280;18103;52.246;8.052;2023-02-02T14:58:33;101097.50;;;6.12;87.12
31483;BME280;18103;52.246;8.052;2023-02-02T15:01:20;101097.97;;;6.03;87.29
31483;BME280;18103;52.246;8.052;2023-02-02T15:04:25;101113.09;;;5.96;87.92
31483;BME280;18103;52.246;8.052;2023-02-02T15:06:50;101114.00;;;5.95;87.47
31483;BME280;18103;52.246;8.052;2023-02-02T15:12:15;101122.16;;;5.89;88.11
31483;BME280;18103;52.246;8.052;2023-02-02T15:19:55;101130.53;;;5.97;88.33
31483;BME280;18103;52.246;8.052;2023-02-02T15:22:30;101119.22;;;5.95;88.37
31483;BME280;18103;52.246;8.052;2023-02-02T15:28:56;101114.78;;;5.78;88.78
31483;BME280;18103;52.246;8.052;2023-02-02T15:31:21;101131.56;;;5.74;89.78
31483;BME280;18103;52.246;8.052;2023-02-02T15:33:57;101126.38;;;5.73;89.60
31483;BME280;18103;52.246;8.052;2023-02-02T15:36:26;101120.53;;;5.87;88.78
31483;BME280;18103;52.246;8.052;2023-02-02T15:39:00;101128.44;;;5.85;88.41
31483;BME280;18103;52.246;8.052;2023-02-02T15:41:31;101133.41;;;5.91;88.45
31483;BME280;18103;52.246;8.052;2023-02-02T15:43:58;101131.47;;;5.76;89.28
31483;BME280;18103;52.246;8.052;2023-02-02T15:46:28;101132.31;;;5.76;89.12
31483;BME280;18103;52.246;8.052;2023-02-02T15:51:48;101131.47;;;5.76;88.91
31483;BME280;18103;52.246;8.052;2023-02-02T15:54:35;101143.59;;;5.78;89.03
31483;BME280;18103;52.246;8.052;2023-02-02T15:57:02;101129.69;;;5.76;88.78
31483;BME280;18103;52.246;8.052;2023-02-02T15:59:37;101136.38;;;5.64;89.48
31483;BME280;18103;52.246;8.052;2023-02-02T16:02:39;101140.69;;;5.65;89.71